createdAt,value
2018-07-16T00:02:13.761Z,24.17
2018-07-16T00:04:46.586Z,18.83
2018-07-16T00:07:25.397Z,14.07
2018-07-16T00:09:58.730Z,13.83
2018-07-16T00:12:31.119Z,18.60
2018-07-16T00:15:03.265Z,21.23
2018-07-16T00:17:36.085Z,26.27
2018-07-16T00:20:09.490Z,17.07
2018-07-16T00:23:25.980Z,28.20
2018-07-16T00:25:58.379Z,26.03
2018-07-16T00:28:30.688Z,13.53
2018-07-16T00:31:03.119Z,18.80
2018-07-16T00:33:35.543Z,16.47
2018-07-16T00:36:07.903Z,16.00
2018-07-16T00:38:40.223Z,17.27
2018-07-16T00:41:12.651Z,26.47
2018-07-16T00:43:45.027Z,18.97
2018-07-16T00:46:18.273Z,19.50
2018-07-16T00:48:51.907Z,18.27
2018-07-16T00:51:24.404Z,19.10
2018-07-16T00:54:00.135Z,27.73
2018-07-16T01:00:03.383Z,25.60
2018-07-16T01:02:35.910Z,19.00
2018-07-16T01:05:08.389Z,21.23
2018-07-16T01:07:40.932Z,25.90
2018-07-16T01:13:34.743Z,27.17
2018-07-16T01:16:07.676Z,34.27
2018-07-16T01:18:40.153Z,16.30
2018-07-16T01:21:12.744Z,23.17
2018-07-16T01:23:46.703Z,25.10
2018-07-16T01:26:20.647Z,29.87
2018-07-16T01:28:55.518Z,21.93
2018-07-16T01:31:31.105Z,21.27
2018-07-16T01:34:08.444Z,12.03
2018-07-16T01:36:45.732Z,5.20
2018-07-16T01:39:23.301Z,5.40
2018-07-16T01:41:59.193Z,7.13
2018-07-16T01:44:32.056Z,2.90
2018-07-16T01:47:32.643Z,9.90
2018-07-16T01:50:08.282Z,8.00
2018-07-16T01:52:44.745Z,8.80
2018-07-16T01:55:16.993Z,7.23
2018-07-16T01:57:49.553Z,9.27
2018-07-16T02:00:20.643Z,7.17
2018-07-16T02:02:53.026Z,8.83
2018-07-16T02:05:26.645Z,9.07
2018-07-16T02:07:59.228Z,8.77
2018-07-16T02:10:31.649Z,13.97
2018-07-16T02:13:48.336Z,10.87
2018-07-16T02:16:21.132Z,11.37
2018-07-16T02:18:53.553Z,12.93
2018-07-16T02:21:25.893Z,13.33
2018-07-16T02:23:58.328Z,12.03
2018-07-16T02:26:31.641Z,14.07
2018-07-16T02:29:07.137Z,8.43
2018-07-16T02:31:39.616Z,16.60
2018-07-16T02:34:12.054Z,11.00
2018-07-16T02:36:44.941Z,12.93
2018-07-16T02:39:17.339Z,7.53
2018-07-16T02:41:50.090Z,12.87
2018-07-16T02:44:22.754Z,11.13
2018-07-16T02:50:26.533Z,13.63
2018-07-16T02:52:58.950Z,12.83
2018-07-16T02:55:31.388Z,12.23
2018-07-16T02:58:06.813Z,12.70
2018-07-16T03:00:39.412Z,15.03
2018-07-16T03:03:11.847Z,10.33
2018-07-16T03:05:44.795Z,13.33
2018-07-16T03:08:18.004Z,12.87
2018-07-16T03:10:51.037Z,15.37
2018-07-16T03:13:23.484Z,11.30
2018-07-16T03:15:55.808Z,13.47
2018-07-16T03:18:29.318Z,14.23
2018-07-16T03:21:01.868Z,13.77
2018-07-16T03:23:34.546Z,12.10
2018-07-16T03:26:07.381Z,15.03
2018-07-16T03:29:27.658Z,20.73
2018-07-16T03:31:59.900Z,16.13
2018-07-16T03:34:32.050Z,15.73
2018-07-16T03:37:04.302Z,17.43
2018-07-16T03:39:36.556Z,15.57
2018-07-16T03:42:08.855Z,15.13
2018-07-16T03:44:41.088Z,13.73
2018-07-16T03:47:15.815Z,13.63
2018-07-16T03:49:48.141Z,11.33
2018-07-16T03:52:22.132Z,12.97
2018-07-16T03:54:54.552Z,15.07
2018-07-16T03:57:27.585Z,10.27
2018-07-16T04:00:06.674Z,11.90
2018-07-16T04:02:38.980Z,10.30
2018-07-16T04:05:11.265Z,9.17
2018-07-16T04:11:06.442Z,10.33
2018-07-16T04:13:38.610Z,8.50
2018-07-16T04:16:10.791Z,10.07
2018-07-16T04:18:43.171Z,8.73
2018-07-16T04:24:36.032Z,11.90
2018-07-16T04:27:08.196Z,18.20
2018-07-16T04:29:40.331Z,14.03
2018-07-16T04:32:12.754Z,9.97
2018-07-16T04:34:44.812Z,13.57
2018-07-16T04:37:16.855Z,9.23
2018-07-16T04:39:48.980Z,12.93
2018-07-16T04:42:21.081Z,14.13
2018-07-16T04:44:53.185Z,11.50
2018-07-16T04:47:25.233Z,11.93
2018-07-16T04:49:57.309Z,14.17
2018-07-16T04:52:29.407Z,14.20
2018-07-16T04:55:01.475Z,19.63
2018-07-16T04:57:33.550Z,15.93
2018-07-16T05:00:05.801Z,14.73
2018-07-16T05:02:38.324Z,11.00
2018-07-16T05:05:10.608Z,10.50
2018-07-16T05:07:42.697Z,13.70
2018-07-16T05:10:14.826Z,12.77
2018-07-16T05:12:46.888Z,15.80
2018-07-16T05:15:18.891Z,14.37
2018-07-16T05:17:50.964Z,16.17
2018-07-16T05:20:23.078Z,8.73
2018-07-16T05:22:55.099Z,11.77
2018-07-16T05:25:27.398Z,9.80
2018-07-16T05:27:59.441Z,8.60
2018-07-16T05:30:31.452Z,15.07
2018-07-16T05:33:03.590Z,10.93
2018-07-16T05:35:35.616Z,9.33
2018-07-16T05:38:07.694Z,14.33
2018-07-16T05:40:39.939Z,8.50
2018-07-16T05:43:12.120Z,12.83
2018-07-16T05:45:44.373Z,11.57
2018-07-16T05:48:16.415Z,9.13
2018-07-16T05:50:48.484Z,10.30
2018-07-16T05:53:20.512Z,8.93
2018-07-16T05:55:52.579Z,10.03
2018-07-16T05:58:24.589Z,10.67
2018-07-16T06:00:56.772Z,5.97
2018-07-16T06:03:28.888Z,8.27
2018-07-16T06:06:00.956Z,6.70
2018-07-16T06:08:33.063Z,7.90
2018-07-16T06:11:05.287Z,11.90
2018-07-16T06:13:37.357Z,5.10
2018-07-16T06:16:09.841Z,8.57
2018-07-16T06:18:41.911Z,10.20
2018-07-16T06:21:13.911Z,8.57
2018-07-16T06:23:46.072Z,6.07
2018-07-16T06:26:18.089Z,7.73
2018-07-16T06:28:50.201Z,8.33
2018-07-16T06:31:22.207Z,14.30
2018-07-16T06:33:54.305Z,5.80
2018-07-16T06:36:26.358Z,13.83
2018-07-16T06:38:58.380Z,4.23
2018-07-16T06:41:30.770Z,4.23
2018-07-16T06:44:02.617Z,5.17
2018-07-16T06:46:34.622Z,8.40
2018-07-16T06:49:06.715Z,11.97
2018-07-16T06:51:38.749Z,9.00
2018-07-16T06:54:11.281Z,9.30
2018-07-16T06:56:43.348Z,17.40
2018-07-16T06:59:15.410Z,12.40
2018-07-16T07:01:47.499Z,10.63
2018-07-16T07:04:19.777Z,14.10
2018-07-16T07:06:51.890Z,19.63
2018-07-16T07:09:23.897Z,17.30
2018-07-16T07:11:55.997Z,11.07
2018-07-16T07:14:28.024Z,9.13
2018-07-16T07:17:00.144Z,11.90
2018-07-16T07:19:32.256Z,10.03
2018-07-16T07:25:26.035Z,14.77
2018-07-16T07:27:58.604Z,15.00
2018-07-16T07:30:31.147Z,10.77
2018-07-16T07:36:18.905Z,11.93
2018-07-16T07:38:51.437Z,11.30
2018-07-16T07:41:23.863Z,10.43
2018-07-16T07:47:26.834Z,11.33
2018-07-16T07:49:59.278Z,8.13
2018-07-16T07:52:31.490Z,9.40
2018-07-16T07:55:04.186Z,11.30
2018-07-16T07:57:36.158Z,9.50
2018-07-16T08:00:08.635Z,13.17
2018-07-16T08:02:41.149Z,9.50
2018-07-16T08:05:13.584Z,14.37
2018-07-16T08:07:45.970Z,16.67
2018-07-16T08:10:18.136Z,13.10
2018-07-16T08:12:50.517Z,9.27
2018-07-16T08:15:23.010Z,9.17
2018-07-16T08:17:55.347Z,11.33
2018-07-16T08:20:28.372Z,14.43
2018-07-16T08:23:00.556Z,8.47
2018-07-16T08:25:32.847Z,10.20
2018-07-16T08:28:05.450Z,8.90
2018-07-16T08:30:38.001Z,7.10
2018-07-16T08:33:10.243Z,12.00
2018-07-16T08:36:30.011Z,9.57
2018-07-16T08:39:02.689Z,8.73
2018-07-16T08:41:34.972Z,5.97
2018-07-16T08:44:07.316Z,12.43
2018-07-16T08:50:10.878Z,10.57
2018-07-16T08:52:43.166Z,8.47
2018-07-16T08:55:15.482Z,10.83
2018-07-16T09:01:09.491Z,9.53
2018-07-16T09:03:41.977Z,11.70
2018-07-16T09:06:14.370Z,10.87
2018-07-16T09:09:32.165Z,11.03
2018-07-16T09:12:04.705Z,14.87
2018-07-16T09:14:36.980Z,11.57
2018-07-16T09:17:09.999Z,12.90
2018-07-16T09:19:42.235Z,11.63
2018-07-16T09:25:35.193Z,10.33
2018-07-16T09:28:07.659Z,8.70
2018-07-16T09:30:40.173Z,13.03
2018-07-16T09:33:12.522Z,12.73
2018-07-16T09:35:44.858Z,15.03
2018-07-16T09:38:17.250Z,11.33
2018-07-16T09:40:49.601Z,14.00
2018-07-16T09:43:22.069Z,13.80
2018-07-16T09:45:54.706Z,14.70
2018-07-16T09:48:27.087Z,13.53
2018-07-16T09:50:59.454Z,11.73
2018-07-16T09:53:31.928Z,12.60
2018-07-16T09:56:04.284Z,12.03
2018-07-16T09:58:36.688Z,11.43
2018-07-16T10:01:13.273Z,11.47
2018-07-16T10:03:45.848Z,12.80
2018-07-16T10:06:18.237Z,11.20
2018-07-16T10:08:50.634Z,15.70
2018-07-16T10:11:23.003Z,11.27
2018-07-16T10:17:16.512Z,7.90
2018-07-16T10:19:48.608Z,9.43
2018-07-16T10:22:20.688Z,11.60
2018-07-16T10:24:52.788Z,11.83
2018-07-16T10:27:25.036Z,9.17
2018-07-16T10:29:57.217Z,13.90
2018-07-16T10:32:29.340Z,11.87
2018-07-16T10:35:01.319Z,7.80
2018-07-16T10:37:33.580Z,10.80
2018-07-16T10:40:05.861Z,16.47
2018-07-16T10:42:38.053Z,11.00
2018-07-16T10:45:10.674Z,17.73
2018-07-16T10:47:42.713Z,15.17
2018-07-16T10:50:15.027Z,14.93
2018-07-16T10:52:47.330Z,28.80
2018-07-16T10:55:19.543Z,41.33
2018-07-16T10:57:51.733Z,164.83
2018-07-16T11:00:23.890Z,258.83
2018-07-16T11:02:56.297Z,108.20
2018-07-16T11:05:28.503Z,54.53
2018-07-16T11:08:00.782Z,48.27
2018-07-16T11:10:33.110Z,16.77
2018-07-16T11:13:05.255Z,13.53
2018-07-16T11:15:37.275Z,15.63
2018-07-16T11:18:09.475Z,38.47
2018-07-16T11:20:41.579Z,32.13
2018-07-16T11:23:13.717Z,26.80
2018-07-16T11:25:50.045Z,17.07
2018-07-16T11:28:22.276Z,22.50
2018-07-16T11:30:55.227Z,24.20
2018-07-16T11:33:27.986Z,27.60
2018-07-16T11:36:00.155Z,19.27
2018-07-16T11:38:32.359Z,18.67
2018-07-16T11:41:04.645Z,12.00
2018-07-16T11:43:36.912Z,15.20
2018-07-16T11:46:09.052Z,15.13
2018-07-16T11:48:41.341Z,9.77
2018-07-16T11:51:13.536Z,9.27
2018-07-16T11:53:45.703Z,12.70
2018-07-16T11:56:18.237Z,11.70
2018-07-16T11:58:51.543Z,20.83
2018-07-16T12:01:23.815Z,14.80
2018-07-16T12:03:55.810Z,19.90
2018-07-16T12:06:27.946Z,21.50
2018-07-16T12:09:01.420Z,13.30
2018-07-16T12:11:35.911Z,17.57
2018-07-16T12:14:08.418Z,18.40
2018-07-16T12:16:43.740Z,12.33
2018-07-16T12:19:15.945Z,11.30
2018-07-16T12:21:50.730Z,12.30
2018-07-16T12:24:23.189Z,8.07
2018-07-16T12:26:57.646Z,12.87
2018-07-16T12:29:29.884Z,8.30
2018-07-16T12:32:02.056Z,17.83
2018-07-16T12:34:34.466Z,10.47
2018-07-16T12:37:06.502Z,15.53
2018-07-16T12:39:39.823Z,10.60
2018-07-16T12:42:38.648Z,8.50
2018-07-16T12:45:13.462Z,12.90
2018-07-16T12:47:46.195Z,11.53
2018-07-16T12:50:19.074Z,10.03
2018-07-16T12:52:51.993Z,13.10
2018-07-16T12:55:26.240Z,11.33
2018-07-16T12:57:59.093Z,10.10
2018-07-16T13:03:17.840Z,11.47
2018-07-16T13:05:50.630Z,11.53
2018-07-16T13:08:23.406Z,10.07
2018-07-16T13:10:56.933Z,13.23
2018-07-16T13:13:29.729Z,17.27
2018-07-16T13:16:02.600Z,13.67
2018-07-16T13:18:35.421Z,13.70
2018-07-16T13:21:08.230Z,10.43
2018-07-16T13:23:40.887Z,7.63
2018-07-16T13:26:13.807Z,11.30
2018-07-16T13:28:47.701Z,6.67
2018-07-16T13:31:20.570Z,10.50
2018-07-16T13:33:53.231Z,6.70
2018-07-16T13:36:25.024Z,7.53
2018-07-16T13:38:57.881Z,7.77
2018-07-16T13:41:30.664Z,8.03
2018-07-16T13:44:03.491Z,8.50
2018-07-16T13:46:36.176Z,9.53
2018-07-16T13:49:09.072Z,6.97
2018-07-16T13:51:42.284Z,7.43
2018-07-16T13:54:15.124Z,12.07
2018-07-16T13:56:50.973Z,6.90
2018-07-16T13:59:23.700Z,9.40
2018-07-16T14:01:56.390Z,14.57
2018-07-16T14:04:29.388Z,10.80
2018-07-16T14:07:02.355Z,10.07
2018-07-16T14:09:35.026Z,5.40
2018-07-16T14:12:07.795Z,10.97
2018-07-16T14:14:40.357Z,9.67
2018-07-16T14:17:17.644Z,7.03
2018-07-16T14:23:11.061Z,12.50
2018-07-16T14:25:43.856Z,6.03
2018-07-16T14:28:19.382Z,10.87
2018-07-16T14:30:52.330Z,8.73
2018-07-16T14:33:26.475Z,10.47
2018-07-16T14:35:59.316Z,10.47
2018-07-16T14:38:53.973Z,10.50
2018-07-16T14:41:27.548Z,9.13
2018-07-16T14:44:04.294Z,9.37
2018-07-16T14:46:44.930Z,6.10
2018-07-16T14:49:23.973Z,8.60
2018-07-16T14:52:02.245Z,8.40
2018-07-16T14:54:40.726Z,7.67
2018-07-16T14:59:55.619Z,11.57
2018-07-16T15:02:49.874Z,11.63
2018-07-16T15:08:52.781Z,14.50
2018-07-16T15:11:28.144Z,9.97
2018-07-16T15:14:02.382Z,8.77
2018-07-16T15:16:38.795Z,9.97
2018-07-16T15:19:14.882Z,15.50
2018-07-16T15:21:49.277Z,6.03
2018-07-16T15:24:23.793Z,11.80
2018-07-16T15:26:58.091Z,7.33
2018-07-16T15:29:32.227Z,10.43
2018-07-16T15:32:07.686Z,14.30
2018-07-16T15:34:42.601Z,12.10
2018-07-16T15:37:16.316Z,10.03
2018-07-16T15:39:49.006Z,16.43
2018-07-16T15:42:21.793Z,16.60
2018-07-16T15:45:11.203Z,11.00
2018-07-16T15:47:44.398Z,13.13
2018-07-16T15:50:22.225Z,12.90
2018-07-16T15:52:56.875Z,17.00
2018-07-16T15:55:37.419Z,14.77
2018-07-16T15:58:10.469Z,13.75
2018-07-16T16:00:48.263Z,11.20
2018-07-16T16:03:22.342Z,13.30
2018-07-16T16:05:55.594Z,10.38
2018-07-16T16:08:38.862Z,21.07
2018-07-16T16:11:26.047Z,13.38
2018-07-16T16:13:59.945Z,15.25
2018-07-16T16:16:35.791Z,10.45
2018-07-16T16:19:16.285Z,12.28
2018-07-16T16:21:49.375Z,17.55
2018-07-16T16:24:22.996Z,16.93
2018-07-16T16:26:57.045Z,18.55
2018-07-16T16:29:30.890Z,18.37
2018-07-16T16:32:08.521Z,18.85
2018-07-16T16:34:43.736Z,18.73
2018-07-16T16:37:32.579Z,19.95
2018-07-16T16:40:07.861Z,17.80
2018-07-16T16:42:41.334Z,18.77
2018-07-16T16:45:14.732Z,12.47
2018-07-16T16:47:47.303Z,17.23
2018-07-16T16:50:24.254Z,21.10
2018-07-16T16:52:58.057Z,19.00
2018-07-16T16:55:45.714Z,14.93
2018-07-16T16:58:20.038Z,16.67
2018-07-16T17:00:53.624Z,15.63
2018-07-16T17:03:26.150Z,11.00
2018-07-16T17:05:58.515Z,11.43
2018-07-16T17:08:32.771Z,15.30
2018-07-16T17:11:07.244Z,17.48
2018-07-16T17:13:40.152Z,23.57
2018-07-16T17:16:12.788Z,15.85
2018-07-16T17:18:45.422Z,13.75
2018-07-16T17:21:23.565Z,12.40
2018-07-16T17:23:57.207Z,16.12
2018-07-16T17:26:31.251Z,20.17
2018-07-16T17:29:03.798Z,12.80
2018-07-16T17:31:36.547Z,20.17
2018-07-16T17:34:11.317Z,16.95
2018-07-16T17:36:51.864Z,14.60
2018-07-16T17:39:24.700Z,17.15
2018-07-16T17:41:57.164Z,13.10
2018-07-16T17:44:29.900Z,18.40
2018-07-16T17:47:02.660Z,13.72
2018-07-16T17:49:35.597Z,12.90
2018-07-16T17:52:09.668Z,20.30
2018-07-16T17:54:42.945Z,11.45
2018-07-16T17:57:20.326Z,21.17
2018-07-16T17:59:53.842Z,21.42
2018-07-16T18:02:30.217Z,12.82
2018-07-16T18:05:05.116Z,16.12
2018-07-16T18:07:39.251Z,16.57
2018-07-16T18:10:12.116Z,11.33
2018-07-16T18:12:44.935Z,17.23
2018-07-16T18:15:19.274Z,13.70
2018-07-16T18:17:57.956Z,20.92
2018-07-16T18:20:33.562Z,22.67
2018-07-16T18:23:07.661Z,18.87
2018-07-16T18:25:41.810Z,19.82
2018-07-16T18:28:14.324Z,16.85
2018-07-16T18:30:49.734Z,20.20
2018-07-16T18:33:22.292Z,15.00
2018-07-16T18:36:21.100Z,27.22
2018-07-16T18:38:53.635Z,22.95
2018-07-16T18:41:26.736Z,21.35
2018-07-16T18:44:04.230Z,27.13
2018-07-16T18:46:39.063Z,15.48
2018-07-16T18:49:12.264Z,17.25
2018-07-16T18:51:44.878Z,15.83
2018-07-16T18:54:18.528Z,26.17
2018-07-16T18:56:51.026Z,24.55
2018-07-16T18:59:24.047Z,20.37
2018-07-16T19:01:57.269Z,11.45
2018-07-16T19:04:29.621Z,16.17
2018-07-16T19:07:05.493Z,17.85
2018-07-16T19:09:38.191Z,16.12
2018-07-16T19:12:11.600Z,28.35
2018-07-16T19:14:47.036Z,20.82
2018-07-16T19:17:22.770Z,19.10
2018-07-16T19:19:55.428Z,15.58
2018-07-16T19:22:27.989Z,15.38
2018-07-16T19:25:01.946Z,25.88
2018-07-16T19:27:37.064Z,21.65
2018-07-16T19:30:11.170Z,24.20
2018-07-16T19:32:43.763Z,23.38
2018-07-16T19:35:16.038Z,18.20
2018-07-16T19:37:49.522Z,19.95
2018-07-16T19:40:21.896Z,22.60
2018-07-16T19:42:54.538Z,19.75
2018-07-16T19:45:28.158Z,19.07
2018-07-16T19:48:01.314Z,19.23
2018-07-16T19:50:34.514Z,26.85
2018-07-16T19:53:07.753Z,25.43
2018-07-16T19:55:40.110Z,26.60
2018-07-16T19:58:12.619Z,20.50
2018-07-16T20:00:45.316Z,23.32
2018-07-16T20:06:48.447Z,20.82
2018-07-16T20:09:21.859Z,17.57
2018-07-16T20:11:54.357Z,14.07
2018-07-16T20:14:27.025Z,24.57
2018-07-16T20:16:59.436Z,20.40
2018-07-16T20:19:31.733Z,29.63
2018-07-16T20:22:06.293Z,29.72
2018-07-16T20:24:38.897Z,34.65
2018-07-16T20:27:11.260Z,22.52
2018-07-16T20:33:04.940Z,22.17
2018-07-16T20:35:37.197Z,17.60
2018-07-16T20:38:09.340Z,17.87
2018-07-16T20:40:41.792Z,26.00
2018-07-16T20:43:14.884Z,16.52
2018-07-16T20:45:47.175Z,18.10
2018-07-16T20:48:22.903Z,22.17
2018-07-16T20:50:54.996Z,25.32
2018-07-16T20:53:27.638Z,26.48
2018-07-16T20:56:00.454Z,23.73
2018-07-16T21:01:55.281Z,23.27
2018-07-16T21:04:28.407Z,20.43
2018-07-16T21:07:01.723Z,22.45
2018-07-16T21:12:55.763Z,22.80
2018-07-16T21:15:28.742Z,24.80
2018-07-16T21:18:02.060Z,27.42
2018-07-16T21:20:35.040Z,17.70
2018-07-16T21:23:08.762Z,19.95
2018-07-16T21:25:42.025Z,37.73
2018-07-16T21:28:15.808Z,27.25
2018-07-16T21:30:48.567Z,24.70
2018-07-16T21:33:21.801Z,26.80
2018-07-16T21:35:54.650Z,22.55
2018-07-16T21:38:27.407Z,27.53
2018-07-16T21:41:00.450Z,31.37
2018-07-16T21:43:33.253Z,24.05
2018-07-16T21:46:06.202Z,27.90
2018-07-16T21:48:39.359Z,14.18
2018-07-16T21:51:12.291Z,33.28
2018-07-16T21:53:45.219Z,22.77
2018-07-16T21:56:17.927Z,30.15
2018-07-16T21:58:50.692Z,25.40
2018-07-16T22:01:23.246Z,22.20
2018-07-16T22:03:56.020Z,25.95
2018-07-16T22:06:27.237Z,25.60
2018-07-16T22:08:59.943Z,27.90
2018-07-16T22:11:34.029Z,21.77
2018-07-16T22:14:08.193Z,32.85
2018-07-16T22:16:41.491Z,25.02
2018-07-16T22:19:14.269Z,18.02
2018-07-16T22:21:47.708Z,30.23
2018-07-16T22:24:20.386Z,26.60
2018-07-16T22:26:54.326Z,22.13
2018-07-16T22:29:30.371Z,26.87
2018-07-16T22:32:03.078Z,27.15
2018-07-16T22:34:35.721Z,26.52
2018-07-16T22:37:08.438Z,26.62
2018-07-16T22:39:41.367Z,19.65
2018-07-16T22:45:34.926Z,29.60
2018-07-16T22:48:07.619Z,24.07
2018-07-16T22:50:40.090Z,25.95
2018-07-16T22:53:12.437Z,22.58
2018-07-16T22:55:44.989Z,22.87
2018-07-16T22:58:17.612Z,28.07
2018-07-16T23:00:50.543Z,21.40
2018-07-16T23:03:22.910Z,21.20
2018-07-16T23:05:55.416Z,28.12
2018-07-16T23:08:28.171Z,21.23
2018-07-16T23:11:23.661Z,20.08
2018-07-16T23:13:56.264Z,25.95
2018-07-16T23:16:28.671Z,24.30
2018-07-16T23:19:01.146Z,30.97
2018-07-16T23:21:33.771Z,25.37
2018-07-16T23:24:41.745Z,27.30
2018-07-16T23:27:14.135Z,19.70
2018-07-16T23:29:46.300Z,32.30
2018-07-16T23:36:36.436Z,26.53
2018-07-16T23:39:12.347Z,37.53
2018-07-16T23:41:45.547Z,24.13
2018-07-16T23:44:18.096Z,32.80
2018-07-16T23:46:50.640Z,32.67
2018-07-16T23:49:24.020Z,27.20
2018-07-16T23:51:56.803Z,18.60
2018-07-16T23:54:29.326Z,24.37
